Time;durP1;ratioP1;P1;durP2;ratioP2;P2;SDS_P1;SDS_P2;PMS_P1;PMS_P2;Temp;Humidity;BMP_temperature;BMP_pressure;BME280_temperature;BME280_humidity;BME280_pressure;Samples;Min_cycle;Max_cycle;Signal;HPM_P1;HPM_P2
2023/04/12 00:01:25;;;;;;;5.13;2.65;;;;;;;;;;4958603;29;20285;-64
2023/04/12 00:03:53;;;;;;;5.63;2.45;;;;;;;;;;4958255;29;20204;-65
2023/04/12 00:06:24;;;;;;;4.78;2.45;;;;;;;;;;4958757;29;20671;-64
2023/04/12 00:08:53;;;;;;;5.28;2.42;;;;;;;;;;4942244;29;20210;-65
2023/04/12 00:11:21;;;;;;;5.60;2.60;;;;;;;;;;4959390;29;20641;-64
2023/04/12 00:13:49;;;;;;;9.65;3.20;;;;;;;;;;4958528;28;20628;-64
2023/04/12 00:16:18;;;;;;;7.55;2.30;;;;;;;;;;4967521;28;20564;-64
2023/04/12 00:18:47;;;;;;;5.22;2.78;;;;;;;;;;4959576;28;20259;-64
2023/04/12 00:21:18;;;;;;;5.22;2.97;;;;;;;;;;4966734;28;20224;-64
2023/04/12 00:23:48;;;;;;;3.88;2.60;;;;;;;;;;4958731;28;20196;-64
2023/04/12 00:26:16;;;;;;;6.00;2.42;;;;;;;;;;4968882;28;20203;-64
2023/04/12 00:28:45;;;;;;;5.43;2.75;;;;;;;;;;4957682;29;20212;-64
2023/04/12 00:31:14;;;;;;;3.45;3.10;;;;;;;;;;4958075;28;20208;-64
2023/04/12 00:33:44;;;;;;;5.88;3.55;;;;;;;;;;4956944;29;20208;-64
2023/04/12 00:36:13;;;;;;;5.45;3.58;;;;;;;;;;4956824;29;20218;-64
2023/04/12 00:38:44;;;;;;;3.20;2.30;;;;;;;;;;4956829;29;20210;-64
2023/04/12 00:41:13;;;;;;;6.70;3.20;;;;;;;;;;4957919;29;20228;-64
2023/04/12 00:43:41;;;;;;;6.97;2.35;;;;;;;;;;4957164;29;20207;-64
2023/04/12 00:46:10;;;;;;;4.85;3.67;;;;;;;;;;4957542;29;20215;-64
2023/04/12 00:48:39;;;;;;;6.45;2.80;;;;;;;;;;4941293;29;20204;-64
2023/04/12 00:51:09;;;;;;;4.85;2.70;;;;;;;;;;4957896;29;20239;-65
2023/04/12 00:53:38;;;;;;;5.40;3.15;;;;;;;;;;4957579;29;20216;-64
2023/04/12 00:56:10;;;;;;;7.05;3.47;;;;;;;;;;4957080;29;20207;-64
2023/04/12 00:58:38;;;;;;;3.03;2.83;;;;;;;;;;4957702;28;20203;-64
2023/04/12 01:01:09;;;;;;;9.27;3.53;;;;;;;;;;4957909;28;20675;-64
2023/04/12 01:03:41;;;;;;;6.40;3.10;;;;;;;;;;4968916;28;20194;-64
2023/04/12 01:06:14;;;;;;;5.03;3.05;;;;;;;;;;4975470;28;20195;-65
2023/04/12 01:08:51;;;;;;;5.47;2.65;;;;;;;;;;4958888;28;20199;-64
2023/04/12 01:11:22;;;;;;;7.97;3.30;;;;;;;;;;4970136;28;20192;-65
2023/04/12 01:13:56;;;;;;;3.83;2.70;;;;;;;;;;4957512;28;20697;-64
2023/04/12 01:16:26;;;;;;;6.93;3.33;;;;;;;;;;4974444;28;20199;-64
2023/04/12 01:18:58;;;;;;;5.00;3.15;;;;;;;;;;4948926;29;20200;-64
2023/04/12 01:21:31;;;;;;;7.25;3.20;;;;;;;;;;4956738;29;20287;-65
2023/04/12 01:24:03;;;;;;;6.25;3.10;;;;;;;;;;4960890;28;20566;-65
2023/04/12 01:26:34;;;;;;;8.25;3.35;;;;;;;;;;4971633;28;20200;-65
2023/04/12 01:29:08;;;;;;;5.55;2.92;;;;;;;;;;4948367;29;20198;-64
2023/04/12 01:31:37;;;;;;;5.93;3.28;;;;;;;;;;4955066;29;20192;-64
2023/04/12 01:34:05;;;;;;;5.45;3.38;;;;;;;;;;4938371;29;20292;-65
2023/04/12 01:36:34;;;;;;;5.07;2.70;;;;;;;;;;4920192;29;20289;-64
2023/04/12 01:39:05;;;;;;;3.97;2.70;;;;;;;;;;4938042;29;20275;-65
2023/04/12 01:41:33;;;;;;;8.23;2.88;;;;;;;;;;4937374;29;20220;-65
2023/04/12 01:44:02;;;;;;;5.40;3.47;;;;;;;;;;4939317;28;20214;-65
2023/04/12 01:46:33;;;;;;;6.75;3.20;;;;;;;;;;4936782;29;20209;-64
2023/04/12 01:49:01;;;;;;;4.10;2.90;;;;;;;;;;4938095;29;20203;-64
2023/04/12 01:51:35;;;;;;;4.00;2.95;;;;;;;;;;4919349;29;20224;-64
2023/04/12 01:54:09;;;;;;;8.10;3.33;;;;;;;;;;4952085;28;20313;-64
2023/04/12 01:56:40;;;;;;;3.80;2.70;;;;;;;;;;4941612;28;20198;-64
2023/04/12 01:59:08;;;;;;;8.02;2.95;;;;;;;;;;4931356;28;20599;-64
2023/04/12 02:01:38;;;;;;;8.02;3.70;;;;;;;;;;4926059;28;20780;-64
2023/04/12 02:04:08;;;;;;;5.57;3.65;;;;;;;;;;4973785;28;20227;-66
2023/04/12 02:06:37;;;;;;;6.00;2.75;;;;;;;;;;4966488;28;20207;-64
2023/04/12 02:09:05;;;;;;;5.32;3.03;;;;;;;;;;4955739;29;20214;-64
2023/04/12 02:11:35;;;;;;;3.85;2.83;;;;;;;;;;4956859;28;20202;-64
2023/04/12 02:14:03;;;;;;;5.22;3.13;;;;;;;;;;4973361;28;20229;-65
2023/04/12 02:16:33;;;;;;;7.32;3.33;;;;;;;;;;4922518;29;20628;-65
2023/04/12 02:19:07;;;;;;;12.18;4.20;;;;;;;;;;4957433;28;20206;-66
2023/04/12 02:21:40;;;;;;;8.85;3.35;;;;;;;;;;4974585;28;20212;-66
2023/04/12 02:24:09;;;;;;;6.13;3.17;;;;;;;;;;4946924;28;20627;-64
2023/04/12 02:26:38;;;;;;;6.07;3.35;;;;;;;;;;4955326;28;20204;-64
2023/04/12 02:29:10;;;;;;;3.95;3.08;;;;;;;;;;4924991;29;20505;-64
2023/04/12 02:31:39;;;;;;;7.05;3.20;;;;;;;;;;4937635;29;20215;-65
2023/04/12 02:34:16;;;;;;;7.60;3.60;;;;;;;;;;4958700;28;20253;-64
2023/04/12 02:36:49;;;;;;;5.03;3.00;;;;;;;;;;4945936;29;20203;-64
2023/04/12 02:39:20;;;;;;;3.65;2.72;;;;;;;;;;4954289;29;20211;-64
2023/04/12 02:41:50;;;;;;;5.18;3.53;;;;;;;;;;4923322;29;20212;-65
2023/04/12 02:44:18;;;;;;;3.70;3.30;;;;;;;;;;4950425;28;20203;-65
2023/04/12 02:47:06;;;;;;;4.55;3.20;;;;;;;;;;4941239;29;21095;-65
2023/04/12 02:49:36;;;;;;;10.48;3.60;;;;;;;;;;4954719;29;20281;-64
2023/04/12 02:52:05;;;;;;;5.03;3.25;;;;;;;;;;4945442;29;20223;-64
2023/04/12 02:54:42;;;;;;;3.90;2.90;;;;;;;;;;4939168;29;20199;-66
2023/04/12 02:57:16;;;;;;;3.58;2.92;;;;;;;;;;4942750;29;20187;-64
2023/04/12 02:59:47;;;;;;;4.00;3.17;;;;;;;;;;4941961;29;20193;-65
2023/04/12 03:02:23;;;;;;;5.88;3.40;;;;;;;;;;4923402;29;20222;-65
2023/04/12 03:04:56;;;;;;;3.60;3.30;;;;;;;;;;4955811;29;20201;-65
2023/04/12 03:07:32;;;;;;;8.98;3.95;;;;;;;;;;4958642;29;20220;-64
2023/04/12 03:10:00;;;;;;;6.18;3.10;;;;;;;;;;4958659;29;20207;-64
2023/04/12 03:12:28;;;;;;;4.13;3.10;;;;;;;;;;4959681;28;20719;-64
2023/04/12 03:15:16;;;;;;;4.55;3.17;;;;;;;;;;4958856;29;20218;-64
2023/04/12 03:17:50;;;;;;;5.85;4.07;;;;;;;;;;4963484;28;20535;-64
2023/04/12 03:20:24;;;;;;;7.05;3.47;;;;;;;;;;4958652;28;20742;-64
2023/04/12 03:23:07;;;;;;;11.68;3.70;;;;;;;;;;4957732;28;20200;-64
2023/04/12 03:25:39;;;;;;;5.97;2.80;;;;;;;;;;4958810;28;20209;-64
2023/04/12 03:28:30;;;;;;;4.60;2.70;;;;;;;;;;4969219;28;20230;-64
2023/04/12 03:31:00;;;;;;;4.60;2.85;;;;;;;;;;4957025;28;20201;-64
2023/04/12 03:33:38;;;;;;;6.70;2.55;;;;;;;;;;4943304;29;20192;-66
2023/04/12 03:36:10;;;;;;;11.18;3.10;;;;;;;;;;4953106;28;20278;-63
2023/04/12 03:38:38;;;;;;;6.68;3.50;;;;;;;;;;4945350;28;20187;-64
2023/04/12 03:41:10;;;;;;;2.40;2.20;;;;;;;;;;4958938;28;20682;-64
2023/04/12 03:43:41;;;;;;;2.50;2.30;;;;;;;;;;4942529;29;20211;-64
2023/04/12 03:46:17;;;;;;;3.28;2.47;;;;;;;;;;4941651;28;20196;-64
2023/04/12 03:48:51;;;;;;;5.45;2.15;;;;;;;;;;4953577;29;20203;-68
2023/04/12 03:51:25;;;;;;;5.85;2.70;;;;;;;;;;4926440;28;20234;-64
2023/04/12 03:53:55;;;;;;;3.70;2.30;;;;;;;;;;4960010;28;20258;-65
2023/04/12 03:56:23;;;;;;;6.60;2.55;;;;;;;;;;4969043;28;20710;-65
2023/04/12 03:58:55;;;;;;;7.18;2.50;;;;;;;;;;4941275;28;20258;-64
2023/04/12 04:01:24;;;;;;;2.30;2.20;;;;;;;;;;4953939;28;20219;-64
2023/04/12 04:03:54;;;;;;;3.42;2.90;;;;;;;;;;4951194;29;20231;-62
2023/04/12 04:06:28;;;;;;;2.83;2.63;;;;;;;;;;4940451;29;20200;-65
2023/04/12 04:08:57;;;;;;;4.00;2.50;;;;;;;;;;4957925;29;20184;-64
2023/04/12 04:11:26;;;;;;;7.70;2.55;;;;;;;;;;4946526;28;20202;-64
2023/04/12 04:14:00;;;;;;;5.78;2.38;;;;;;;;;;4944110;28;20195;-64
2023/04/12 04:16:29;;;;;;;3.00;2.45;;;;;;;;;;4947997;29;20204;-64
2023/04/12 04:18:58;;;;;;;2.28;1.80;;;;;;;;;;4961313;28;20200;-64
2023/04/12 04:21:29;;;;;;;3.13;2.20;;;;;;;;;;4925167;29;20279;-64
2023/04/12 04:24:01;;;;;;;5.05;2.30;;;;;;;;;;4940078;29;20197;-64
2023/04/12 04:26:37;;;;;;;2.75;2.00;;;;;;;;;;4972394;28;20543;-64
2023/04/12 04:29:12;;;;;;;8.00;2.70;;;;;;;;;;4954111;29;20262;-64
2023/04/12 04:31:41;;;;;;;3.47;2.55;;;;;;;;;;4957813;28;20246;-64
2023/04/12 04:34:10;;;;;;;3.03;2.67;;;;;;;;;;4970032;28;20207;-64
2023/04/12 04:37:00;;;;;;;9.70;3.70;;;;;;;;;;4958910;28;20235;-64
2023/04/12 04:39:29;;;;;;;3.45;1.92;;;;;;;;;;4940488;29;20204;-64
2023/04/12 04:41:59;;;;;;;2.78;2.20;;;;;;;;;;4940494;29;20212;-64
2023/04/12 04:44:37;;;;;;;8.43;3.35;;;;;;;;;;4943080;28;20198;-64
2023/04/12 04:47:08;;;;;;;10.95;3.63;;;;;;;;;;4948709;29;20196;-66
2023/04/12 04:49:36;;;;;;;7.18;3.65;;;;;;;;;;4957868;29;20229;-64
2023/04/12 04:52:12;;;;;;;5.80;4.00;;;;;;;;;;4955333;29;20320;-65
2023/04/12 04:54:40;;;;;;;6.15;3.28;;;;;;;;;;4956838;28;20196;-65
2023/04/12 04:57:10;;;;;;;6.40;2.97;;;;;;;;;;4948237;28;20246;-64
2023/04/12 04:59:39;;;;;;;5.10;3.30;;;;;;;;;;4958938;28;20207;-64
2023/04/12 05:02:18;;;;;;;3.50;3.20;;;;;;;;;;4940738;29;20216;-64
2023/04/12 05:04:46;;;;;;;4.50;3.67;;;;;;;;;;4938497;29;20207;-64
2023/04/12 05:07:20;;;;;;;3.83;3.47;;;;;;;;;;4948151;28;20198;-64
2023/04/12 05:09:50;;;;;;;5.15;3.20;;;;;;;;;;4957108;28;20195;-64
2023/04/12 05:12:20;;;;;;;3.03;2.65;;;;;;;;;;4940381;29;20203;-64
2023/04/12 05:14:52;;;;;;;6.25;3.90;;;;;;;;;;4939365;29;20200;-64
2023/04/12 05:17:21;;;;;;;7.57;3.30;;;;;;;;;;4946266;28;20199;-64
2023/04/12 05:19:49;;;;;;;4.03;3.30;;;;;;;;;;4960824;28;20234;-66
2023/04/12 05:22:19;;;;;;;4.07;2.78;;;;;;;;;;4945354;29;20224;-64
2023/04/12 05:24:49;;;;;;;5.00;3.58;;;;;;;;;;4945006;28;20188;-64
2023/04/12 05:27:18;;;;;;;12.25;4.13;;;;;;;;;;4949388;28;20200;-64
2023/04/12 05:29:48;;;;;;;6.40;3.30;;;;;;;;;;4936741;28;20274;-64
2023/04/12 05:32:19;;;;;;;5.60;3.28;;;;;;;;;;4951104;28;20274;-65
2023/04/12 05:34:48;;;;;;;4.30;3.15;;;;;;;;;;4956368;28;20214;-64
2023/04/12 05:37:16;;;;;;;6.47;3.10;;;;;;;;;;4956160;28;20212;-65
2023/04/12 05:39:44;;;;;;;4.90;2.63;;;;;;;;;;4956405;28;20200;-65
2023/04/12 05:42:15;;;;;;;3.33;2.28;;;;;;;;;;4938866;29;20226;-65
2023/04/12 05:44:44;;;;;;;3.63;2.58;;;;;;;;;;4936396;29;20209;-65
2023/04/12 05:47:15;;;;;;;4.07;2.28;;;;;;;;;;4923113;29;20232;-65
2023/04/12 05:49:43;;;;;;;4.40;2.30;;;;;;;;;;4937886;29;20208;-65
2023/04/12 05:52:12;;;;;;;7.88;2.88;;;;;;;;;;4920258;29;20228;-65
2023/04/12 05:54:42;;;;;;;3.22;2.80;;;;;;;;;;4920648;29;20728;-65
2023/04/12 05:57:17;;;;;;;4.47;2.80;;;;;;;;;;4920648;29;20197;-65
2023/04/12 05:59:45;;;;;;;3.40;3.05;;;;;;;;;;4920241;29;20724;-65
2023/04/12 06:02:13;;;;;;;4.20;3.22;;;;;;;;;;4936996;29;20238;-66
2023/04/12 06:04:42;;;;;;;6.72;3.70;;;;;;;;;;4936525;29;20213;-65
2023/04/12 06:07:12;;;;;;;7.30;3.00;;;;;;;;;;4920620;29;20220;-65
2023/04/12 06:09:41;;;;;;;3.95;3.45;;;;;;;;;;4933481;29;20674;-66
2023/04/12 06:12:09;;;;;;;4.32;2.90;;;;;;;;;;4951548;29;20207;-67
2023/04/12 06:14:39;;;;;;;6.85;3.20;;;;;;;;;;4955299;28;20198;-66
2023/04/12 06:17:08;;;;;;;4.15;2.80;;;;;;;;;;4940012;29;20267;-65
2023/04/12 06:19:36;;;;;;;5.03;2.97;;;;;;;;;;4954693;29;20231;-67
2023/04/12 06:22:05;;;;;;;3.45;3.10;;;;;;;;;;4956704;29;20767;-69
2023/04/12 06:24:34;;;;;;;4.75;3.35;;;;;;;;;;4957132;29;20271;-70
2023/04/12 06:27:03;;;;;;;3.20;3.00;;;;;;;;;;4953351;29;20767;-69
2023/04/12 06:29:33;;;;;;;3.90;3.42;;;;;;;;;;4938739;29;20192;-70
2023/04/12 06:32:02;;;;;;;3.90;2.90;;;;;;;;;;4953870;29;20204;-69
2023/04/12 06:34:31;;;;;;;3.55;2.95;;;;;;;;;;4937675;29;20328;-71
2023/04/12 06:37:05;;;;;;;2.75;2.55;;;;;;;;;;4939455;29;20275;-70
2023/04/12 06:39:34;;;;;;;8.60;3.58;;;;;;;;;;4964731;29;20299;-71
2023/04/12 06:42:02;;;;;;;5.47;2.90;;;;;;;;;;4953877;29;20235;-69
2023/04/12 06:44:32;;;;;;;6.53;3.88;;;;;;;;;;4960107;29;20247;-67
2023/04/12 06:47:00;;;;;;;2.42;2.33;;;;;;;;;;4967312;29;20227;-72
2023/04/12 06:49:30;;;;;;;4.10;3.30;;;;;;;;;;5069193;23;20662;-68
2023/04/12 06:51:58;;;;;;;6.72;3.58;;;;;;;;;;4973191;28;20213;-68
2023/04/12 06:54:26;;;;;;;7.15;2.55;;;;;;;;;;4972820;28;20211;-67
2023/04/12 06:56:56;;;;;;;4.78;3.25;;;;;;;;;;4971867;28;20203;-67
2023/04/12 06:59:24;;;;;;;8.10;3.63;;;;;;;;;;4974031;28;20207;-66
2023/04/12 07:01:52;;;;;;;4.28;3.95;;;;;;;;;;4976902;28;20259;-67
2023/04/12 07:04:20;;;;;;;2.95;2.70;;;;;;;;;;4983132;28;20287;-66
2023/04/12 07:06:50;;;;;;;4.53;4.10;;;;;;;;;;4982962;28;20298;-66
2023/04/12 07:09:18;;;;;;;5.53;3.70;;;;;;;;;;4965800;28;20271;-65
2023/04/12 07:11:47;;;;;;;4.05;3.15;;;;;;;;;;4966813;28;20219;-67
2023/04/12 07:14:15;;;;;;;7.28;3.38;;;;;;;;;;4947165;28;20208;-68
2023/04/12 07:16:47;;;;;;;7.82;3.55;;;;;;;;;;4942274;28;20210;-67
2023/04/12 07:19:16;;;;;;;13.65;10.02;;;;;;;;;;4959866;28;20651;-66
2023/04/12 07:21:44;;;;;;;6.47;5.05;;;;;;;;;;4941814;29;21358;-67
2023/04/12 07:24:14;;;;;;;6.65;3.35;;;;;;;;;;4941805;29;20220;-68
2023/04/12 07:26:42;;;;;;;4.70;4.00;;;;;;;;;;4941424;29;20619;-68
2023/04/12 07:29:10;;;;;;;9.63;3.78;;;;;;;;;;4943116;29;20600;-66
2023/04/12 07:31:38;;;;;;;4.78;3.30;;;;;;;;;;4955197;29;20342;-67
2023/04/12 07:34:07;;;;;;;3.80;3.30;;;;;;;;;;4950140;29;20284;-67
2023/04/12 07:36:35;;;;;;;5.13;3.35;;;;;;;;;;4946499;29;20709;-66
2023/04/12 07:39:03;;;;;;;4.05;3.05;;;;;;;;;;4949153;29;20211;-67
2023/04/12 07:41:32;;;;;;;5.25;3.70;;;;;;;;;;4947642;29;20290;-70
2023/04/12 07:44:01;;;;;;;3.60;3.30;;;;;;;;;;4956862;29;20224;-68
2023/04/12 07:46:29;;;;;;;5.15;3.53;;;;;;;;;;4953320;29;20203;-68
2023/04/12 07:48:57;;;;;;;7.53;3.55;;;;;;;;;;4957669;29;20236;-67
2023/04/12 07:51:26;;;;;;;4.57;3.08;;;;;;;;;;4952221;29;20223;-68
2023/04/12 07:53:54;;;;;;;7.00;3.85;;;;;;;;;;4959103;29;20627;-67
2023/04/12 07:56:22;;;;;;;4.13;3.72;;;;;;;;;;4960323;29;20207;-68
2023/04/12 07:58:52;;;;;;;7.68;3.60;;;;;;;;;;4964252;29;20745;-67
2023/04/12 08:01:20;;;;;;;5.03;3.42;;;;;;;;;;4945811;29;20625;-67
2023/04/12 08:03:48;;;;;;;7.05;3.78;;;;;;;;;;4958001;29;20691;-67
2023/04/12 08:06:17;;;;;;;5.20;3.33;;;;;;;;;;4954938;29;20878;-67
2023/04/12 08:08:45;;;;;;;7.93;3.40;;;;;;;;;;4957002;29;20601;-68
2023/04/12 08:11:13;;;;;;;3.88;3.50;;;;;;;;;;4960374;29;20258;-68
2023/04/12 08:13:41;;;;;;;4.47;3.45;;;;;;;;;;4941209;29;20200;-68
2023/04/12 08:16:12;;;;;;;4.50;4.05;;;;;;;;;;4954999;29;20204;-68
2023/04/12 08:18:40;;;;;;;4.30;3.90;;;;;;;;;;4957683;29;20207;-68
2023/04/12 08:21:08;;;;;;;6.50;4.22;;;;;;;;;;4952472;29;20220;-68
2023/04/12 08:23:37;;;;;;;3.97;3.05;;;;;;;;;;4954641;28;20328;-69
2023/04/12 08:26:05;;;;;;;7.00;3.60;;;;;;;;;;4955185;29;20204;-68
2023/04/12 08:28:33;;;;;;;3.28;3.08;;;;;;;;;;4956845;29;20741;-67
2023/04/12 08:31:02;;;;;;;3.97;3.67;;;;;;;;;;4954107;29;20224;-69
2023/04/12 08:33:31;;;;;;;4.63;3.58;;;;;;;;;;4925588;29;20208;-69
2023/04/12 08:35:59;;;;;;;4.05;3.75;;;;;;;;;;4945364;29;20204;-69
2023/04/12 08:38:28;;;;;;;3.60;3.28;;;;;;;;;;4955871;29;20543;-67
2023/04/12 08:40:56;;;;;;;4.15;2.95;;;;;;;;;;4955440;29;20212;-68
2023/04/12 08:43:27;;;;;;;4.35;3.63;;;;;;;;;;4956174;29;20231;-68
2023/04/12 08:45:55;;;;;;;9.18;3.67;;;;;;;;;;4955642;29;20196;-67
2023/04/12 08:48:24;;;;;;;10.32;3.45;;;;;;;;;;4968470;29;20691;-67
2023/04/12 08:50:55;;;;;;;5.03;3.40;;;;;;;;;;4964690;29;20646;-67
2023/04/12 08:53:23;;;;;;;4.32;3.53;;;;;;;;;;4959860;28;20268;-68
2023/04/12 08:55:52;;;;;;;3.67;3.38;;;;;;;;;;4959020;29;20214;-69
2023/04/12 08:58:21;;;;;;;4.45;3.45;;;;;;;;;;4941027;29;20277;-67
2023/04/12 09:00:49;;;;;;;4.78;3.42;;;;;;;;;;4939618;29;20283;-67
2023/04/12 09:03:17;;;;;;;5.43;2.70;;;;;;;;;;4956539;29;20259;-68
2023/04/12 09:05:46;;;;;;;3.75;2.53;;;;;;;;;;4961654;29;20283;-67
2023/04/12 09:08:16;;;;;;;4.85;3.10;;;;;;;;;;4944767;29;20243;-67
2023/04/12 09:10:44;;;;;;;9.07;4.10;;;;;;;;;;4956303;28;20200;-67
2023/04/12 09:13:12;;;;;;;5.20;3.30;;;;;;;;;;4954533;28;20204;-68
2023/04/12 09:15:49;;;;;;;4.50;3.88;;;;;;;;;;4942324;29;20214;-67
2023/04/12 09:18:17;;;;;;;3.60;3.30;;;;;;;;;;4956419;29;20203;-68
2023/04/12 09:20:45;;;;;;;4.90;3.70;;;;;;;;;;4956744;29;20223;-67
2023/04/12 09:23:19;;;;;;;9.85;3.58;;;;;;;;;;4954932;29;20204;-66
2023/04/12 09:25:50;;;;;;;3.67;3.30;;;;;;;;;;4955440;29;20204;-68
2023/04/12 09:28:22;;;;;;;6.03;3.47;;;;;;;;;;4953412;29;20208;-67
2023/04/12 09:30:53;;;;;;;5.82;3.85;;;;;;;;;;4954235;29;20214;-67
2023/04/12 09:33:23;;;;;;;6.20;3.65;;;;;;;;;;4953540;29;20270;-68
2023/04/12 09:35:51;;;;;;;10.27;3.55;;;;;;;;;;4954437;29;20204;-68
2023/04/12 09:38:21;;;;;;;5.18;3.53;;;;;;;;;;4955271;29;20278;-68
2023/04/12 09:40:49;;;;;;;4.57;3.47;;;;;;;;;;4955491;29;20274;-67
2023/04/12 09:43:17;;;;;;;4.38;3.70;;;;;;;;;;4955226;29;20196;-67
2023/04/12 09:45:45;;;;;;;5.05;3.65;;;;;;;;;;4927072;29;20219;-65
2023/04/12 09:48:19;;;;;;;3.95;3.60;;;;;;;;;;4937604;29;20251;-68
2023/04/12 09:50:48;;;;;;;4.70;3.67;;;;;;;;;;4935586;29;20271;-68
2023/04/12 09:53:18;;;;;;;4.95;3.67;;;;;;;;;;4940383;29;20219;-66
2023/04/12 09:55:48;;;;;;;5.03;3.33;;;;;;;;;;4957831;29;21170;-67
2023/04/12 09:58:20;;;;;;;4.32;3.90;;;;;;;;;;4942092;29;20312;-67
2023/04/12 10:00:49;;;;;;;4.95;3.70;;;;;;;;;;4940148;29;20218;-67
2023/04/12 10:03:19;;;;;;;6.38;3.47;;;;;;;;;;4950095;28;20306;-68
2023/04/12 10:05:47;;;;;;;3.92;2.88;;;;;;;;;;4947364;29;20214;-68
2023/04/12 10:08:16;;;;;;;4.72;4.20;;;;;;;;;;4939659;29;20866;-67
2023/04/12 10:10:45;;;;;;;3.92;3.63;;;;;;;;;;4957144;29;20208;-67
2023/04/12 10:13:15;;;;;;;7.88;4.88;;;;;;;;;;4941140;29;20275;-67
2023/04/12 10:15:45;;;;;;;7.07;3.90;;;;;;;;;;4958457;29;20275;-67
2023/04/12 10:18:14;;;;;;;8.35;4.28;;;;;;;;;;4958595;29;20272;-68
2023/04/12 10:20:43;;;;;;;5.95;3.47;;;;;;;;;;4958781;29;20306;-67
2023/04/12 10:23:17;;;;;;;4.43;3.58;;;;;;;;;;4943191;29;20286;-67
2023/04/12 10:25:47;;;;;;;3.97;3.67;;;;;;;;;;4943575;29;20322;-67
2023/04/12 10:28:17;;;;;;;4.97;3.47;;;;;;;;;;4962209;29;20260;-67
2023/04/12 10:30:46;;;;;;;5.55;4.13;;;;;;;;;;4960571;29;20271;-67
2023/04/12 10:33:16;;;;;;;3.90;3.53;;;;;;;;;;4962844;29;20259;-67
2023/04/12 10:35:53;;;;;;;5.45;4.72;;;;;;;;;;4962468;29;20278;-67
2023/04/12 10:38:23;;;;;;;5.43;3.30;;;;;;;;;;4964803;29;20252;-67
2023/04/12 10:41:16;;;;;;;7.13;4.35;;;;;;;;;;4963095;29;20290;-68
2023/04/12 10:43:46;;;;;;;5.97;3.10;;;;;;;;;;4943002;29;20290;-67
2023/04/12 10:46:38;;;;;;;3.40;3.10;;;;;;;;;;4943811;29;20656;-67
2023/04/12 10:49:09;;;;;;;4.53;3.15;;;;;;;;;;4960528;29;20314;-67
2023/04/12 10:51:37;;;;;;;4.07;2.95;;;;;;;;;;4958916;29;20207;-67
2023/04/12 10:54:36;;;;;;;6.88;4.10;;;;;;;;;;4942872;29;20296;-67
2023/04/12 10:57:05;;;;;;;3.25;3.00;;;;;;;;;;4954755;29;20286;-68
2023/04/12 10:59:56;;;;;;;3.78;3.38;;;;;;;;;;4945079;29;20273;-68
2023/04/12 11:02:24;;;;;;;4.57;2.95;;;;;;;;;;4960530;29;20264;-66
2023/04/12 11:05:08;;;;;;;5.75;2.95;;;;;;;;;;4960977;29;20295;-68
2023/04/12 11:07:55;;;;;;;4.55;3.17;;;;;;;;;;4955594;29;20334;-67
2023/04/12 11:10:51;;;;;;;3.60;2.67;;;;;;;;;;4951051;29;20303;-68
2023/04/12 11:13:27;;;;;;;5.50;4.38;;;;;;;;;;4958508;29;20271;-67
2023/04/12 11:15:57;;;;;;;4.43;3.03;;;;;;;;;;4960092;28;20311;-66
2023/04/12 11:18:26;;;;;;;4.07;3.50;;;;;;;;;;4960557;29;20264;-66
2023/04/12 11:20:54;;;;;;;4.93;2.80;;;;;;;;;;4966139;29;20279;-67
2023/04/12 11:23:23;;;;;;;6.00;2.63;;;;;;;;;;4948471;29;20347;-67
2023/04/12 11:25:52;;;;;;;4.72;2.95;;;;;;;;;;4958911;29;20242;-67
2023/04/12 11:28:22;;;;;;;6.13;2.40;;;;;;;;;;4957129;29;20287;-68
2023/04/12 11:30:51;;;;;;;6.53;2.58;;;;;;;;;;4953060;29;20684;-67
2023/04/12 11:33:36;;;;;;;4.05;3.15;;;;;;;;;;4962565;29;20271;-67
2023/04/12 11:36:06;;;;;;;4.38;2.95;;;;;;;;;;4951417;29;20267;-66
2023/04/12 11:38:35;;;;;;;4.32;2.63;;;;;;;;;;4955943;29;20283;-67
2023/04/12 11:41:04;;;;;;;3.83;2.70;;;;;;;;;;4961621;29;20291;-67
2023/04/12 11:43:33;;;;;;;4.18;2.70;;;;;;;;;;4958625;28;20312;-67
2023/04/12 11:46:02;;;;;;;4.93;3.00;;;;;;;;;;4956211;29;20299;-67
2023/04/12 11:48:30;;;;;;;3.22;2.60;;;;;;;;;;4961630;29;20306;-67
2023/04/12 11:51:00;;;;;;;4.35;3.30;;;;;;;;;;4937663;29;20256;-66
2023/04/12 11:53:29;;;;;;;3.50;3.03;;;;;;;;;;4960218;29;20259;-66
2023/04/12 11:55:58;;;;;;;5.28;2.90;;;;;;;;;;4929194;29;20252;-66
2023/04/12 11:58:27;;;;;;;3.50;3.10;;;;;;;;;;4950438;29;20641;-67
2023/04/12 12:00:57;;;;;;;5.10;3.10;;;;;;;;;;4944899;29;20265;-66
2023/04/12 12:03:25;;;;;;;4.05;2.60;;;;;;;;;;4957279;29;20354;-66
2023/04/12 12:05:54;;;;;;;8.50;2.77;;;;;;;;;;4942099;29;20224;-67
2023/04/12 12:08:24;;;;;;;6.85;2.78;;;;;;;;;;4945620;29;20670;-67
2023/04/12 12:10:53;;;;;;;7.27;3.30;;;;;;;;;;4943164;29;20276;-66
2023/04/12 12:13:21;;;;;;;5.32;2.38;;;;;;;;;;4950481;29;20718;-65
2023/04/12 12:15:52;;;;;;;5.90;2.70;;;;;;;;;;4953823;29;20200;-67
2023/04/12 12:18:20;;;;;;;5.40;3.20;;;;;;;;;;4958309;29;20192;-67
2023/04/12 12:20:49;;;;;;;5.40;3.30;;;;;;;;;;4963627;29;20311;-67
2023/04/12 12:23:29;;;;;;;8.43;3.28;;;;;;;;;;4964701;29;20287;-66
2023/04/12 12:25:58;;;;;;;5.10;3.00;;;;;;;;;;4957853;29;20268;-66
2023/04/12 12:28:26;;;;;;;3.50;3.20;;;;;;;;;;4938256;29;20272;-66
2023/04/12 12:30:56;;;;;;;3.17;2.63;;;;;;;;;;4943351;29;20263;-66
2023/04/12 12:33:24;;;;;;;3.63;2.97;;;;;;;;;;4956257;29;20267;-66
2023/04/12 12:35:56;;;;;;;2.75;2.55;;;;;;;;;;4954916;29;20252;-66
2023/04/12 12:38:24;;;;;;;4.70;3.35;;;;;;;;;;4960991;29;20256;-66
2023/04/12 12:40:54;;;;;;;3.10;2.90;;;;;;;;;;4948561;29;20295;-66
2023/04/12 12:43:22;;;;;;;3.63;2.10;;;;;;;;;;4960544;29;20283;-65
2023/04/12 12:45:50;;;;;;;5.10;2.00;;;;;;;;;;4948200;29;20730;-66
2023/04/12 12:48:20;;;;;;;6.15;2.70;;;;;;;;;;4948702;29;20307;-66
2023/04/12 12:50:48;;;;;;;3.35;2.25;;;;;;;;;;4956121;29;20252;-66
2023/04/12 12:53:16;;;;;;;2.58;2.45;;;;;;;;;;4965942;28;20273;-66
2023/04/12 12:55:45;;;;;;;2.85;2.13;;;;;;;;;;4952766;29;20722;-66
2023/04/12 12:58:14;;;;;;;2.80;2.50;;;;;;;;;;4954326;29;20319;-66
2023/04/12 13:00:42;;;;;;;2.23;2.03;;;;;;;;;;4950585;29;20720;-66
2023/04/12 13:03:10;;;;;;;6.20;2.60;;;;;;;;;;4954184;29;20710;-65
2023/04/12 13:05:39;;;;;;;3.08;2.67;;;;;;;;;;4953860;29;20306;-66
2023/04/12 13:08:07;;;;;;;3.38;2.40;;;;;;;;;;4954240;29;20338;-68
2023/04/12 13:10:35;;;;;;;4.03;2.75;;;;;;;;;;4955768;29;20263;-67
2023/04/12 13:13:03;;;;;;;4.95;3.08;;;;;;;;;;4952982;29;20287;-66
2023/04/12 13:15:33;;;;;;;3.25;2.90;;;;;;;;;;4956272;29;20264;-66
2023/04/12 13:18:01;;;;;;;3.88;2.55;;;;;;;;;;4953600;29;20283;-66
2023/04/12 13:20:30;;;;;;;10.00;3.70;;;;;;;;;;4953423;29;20311;-65
2023/04/12 13:22:58;;;;;;;9.23;3.50;;;;;;;;;;4943693;29;20284;-67
2023/04/12 13:25:26;;;;;;;4.90;3.13;;;;;;;;;;4956309;28;20275;-66
2023/04/12 13:27:54;;;;;;;4.35;3.92;;;;;;;;;;4951282;28;20216;-66
2023/04/12 13:30:23;;;;;;;3.80;3.40;;;;;;;;;;4957805;29;20275;-66
2023/04/12 13:32:53;;;;;;;6.75;4.05;;;;;;;;;;4956805;29;20208;-67
2023/04/12 13:35:22;;;;;;;3.70;3.15;;;;;;;;;;4941758;29;20203;-67
2023/04/12 13:37:50;;;;;;;4.45;3.72;;;;;;;;;;4953835;28;20280;-68
2023/04/12 13:40:18;;;;;;;3.90;3.03;;;;;;;;;;4949014;29;20204;-66
2023/04/12 13:42:46;;;;;;;9.95;3.97;;;;;;;;;;4952668;29;20199;-67
2023/04/12 13:45:15;;;;;;;7.47;3.80;;;;;;;;;;4936994;29;20275;-67
2023/04/12 13:47:43;;;;;;;5.13;4.25;;;;;;;;;;4948583;29;20283;-67
2023/04/12 13:50:12;;;;;;;5.90;3.92;;;;;;;;;;4956177;29;20327;-67
2023/04/12 13:52:41;;;;;;;6.40;4.25;;;;;;;;;;4955958;28;20283;-68
2023/04/12 13:55:09;;;;;;;15.77;6.30;;;;;;;;;;4950706;29;20631;-66
2023/04/12 13:57:37;;;;;;;19.55;4.93;;;;;;;;;;4953765;29;20200;-67
2023/04/12 14:00:06;;;;;;;1.40;1.30;;;;;;;;;;4951298;28;20584;-67
2023/04/12 14:02:35;;;;;;;3.63;1.20;;;;;;;;;;4952774;28;20218;-67
2023/04/12 14:05:03;;;;;;;6.28;1.50;;;;;;;;;;4946436;29;20677;-68
2023/04/12 14:07:33;;;;;;;1.40;1.30;;;;;;;;;;4938593;29;20231;-68
2023/04/12 14:10:01;;;;;;;1.40;1.20;;;;;;;;;;4935385;29;20201;-69
2023/04/12 14:12:29;;;;;;;7.82;1.30;;;;;;;;;;4952521;29;20598;-67
2023/04/12 14:14:58;;;;;;;2.10;1.38;;;;;;;;;;4952795;29;20671;-69
2023/04/12 14:17:30;;;;;;;1.85;1.75;;;;;;;;;;4950976;29;20679;-68
2023/04/12 14:19:59;;;;;;;2.85;1.80;;;;;;;;;;4934512;29;20225;-67
2023/04/12 14:22:27;;;;;;;2.22;1.42;;;;;;;;;;4935081;29;20201;-68
2023/04/12 14:24:59;;;;;;;1.15;1.00;;;;;;;;;;4949899;29;20210;-68
2023/04/12 14:27:27;;;;;;;2.20;1.75;;;;;;;;;;4937845;29;20229;-67
2023/04/12 14:29:55;;;;;;;1.95;1.08;;;;;;;;;;4932964;29;20201;-67
2023/04/12 14:32:24;;;;;;;1.25;1.15;;;;;;;;;;4937820;28;20209;-67
2023/04/12 14:34:52;;;;;;;0.70;0.70;;;;;;;;;;4966430;28;20549;-69
2023/04/12 14:37:20;;;;;;;0.90;0.90;;;;;;;;;;4933646;29;20268;-67
2023/04/12 14:39:48;;;;;;;0.85;0.85;;;;;;;;;;4933824;29;20314;-67
2023/04/12 14:42:18;;;;;;;0.90;0.90;;;;;;;;;;4949427;29;20200;-68
2023/04/12 14:44:46;;;;;;;10.73;1.33;;;;;;;;;;4951674;29;20254;-67
2023/04/12 14:47:14;;;;;;;4.95;1.38;;;;;;;;;;4949062;29;20227;-68
2023/04/12 14:49:43;;;;;;;21.90;2.28;;;;;;;;;;4946733;28;20249;-69
2023/04/12 14:52:11;;;;;;;1.02;0.80;;;;;;;;;;4947018;29;20201;-69
2023/04/12 14:54:39;;;;;;;0.80;0.80;;;;;;;;;;4947977;29;20232;-68
2023/04/12 14:57:07;;;;;;;2.78;0.80;;;;;;;;;;4949887;29;20258;-68
2023/04/12 14:59:37;;;;;;;1.58;1.48;;;;;;;;;;4947465;29;20673;-68
2023/04/12 15:02:06;;;;;;;5.05;4.72;;;;;;;;;;4955302;29;20563;-67